createdAt,value
2018-08-30T00:00:19.485Z,95511.06
2018-08-30T00:02:49.934Z,95506.97
2018-08-30T00:05:18.494Z,95507.46
2018-08-30T00:07:47.024Z,95508.73
2018-08-30T00:10:15.740Z,95506.66
2018-08-30T00:12:44.416Z,95509.08
2018-08-30T00:15:12.955Z,95508.80
2018-08-30T00:17:42.491Z,95511.41
2018-08-30T00:20:12.006Z,95510.70
2018-08-30T00:22:40.532Z,95511.27
2018-08-30T00:25:09.969Z,95513.95
2018-08-30T00:27:38.519Z,95513.86
2018-08-30T00:30:07.042Z,95513.68
2018-08-30T00:32:36.580Z,95508.25
2018-08-30T00:35:05.112Z,95509.48
2018-08-30T00:37:33.667Z,95511.78
2018-08-30T00:40:02.210Z,95508.13
2018-08-30T00:42:30.740Z,95512.75
2018-08-30T00:44:59.310Z,95510.19
2018-08-30T00:47:27.840Z,95513.94
2018-08-30T00:49:56.408Z,95511.68
2018-08-30T00:52:26.928Z,95513.00
2018-08-30T00:54:55.464Z,95507.59
2018-08-30T00:57:24.025Z,95512.52
2018-08-30T00:59:52.547Z,95516.05
2018-08-30T01:02:21.148Z,95517.27
2018-08-30T01:04:49.659Z,95516.89
2018-08-30T01:07:18.208Z,95519.34
2018-08-30T01:09:46.748Z,95516.77
2018-08-30T01:12:15.272Z,95520.73
2018-08-30T01:14:43.816Z,95519.44
2018-08-30T01:17:12.361Z,95522.75
2018-08-30T01:19:40.956Z,95521.05
2018-08-30T01:22:09.461Z,95518.75
2018-08-30T01:24:37.997Z,95518.66
2018-08-30T01:27:06.569Z,95520.64
2018-08-30T01:29:35.103Z,95519.94
2018-08-30T01:32:03.648Z,95520.63
2018-08-30T01:34:32.199Z,95524.33
2018-08-30T01:37:00.723Z,95521.23
2018-08-30T01:39:29.264Z,95521.41
2018-08-30T01:41:58.781Z,95527.87
2018-08-30T01:44:27.331Z,95521.20
2018-08-30T01:46:55.965Z,95515.11
2018-08-30T01:49:24.495Z,95513.89
2018-08-30T01:51:53.044Z,95518.30
2018-08-30T01:54:21.694Z,95519.27
2018-08-30T01:56:50.244Z,95520.38
2018-08-30T01:59:18.773Z,95514.38
2018-08-30T02:01:47.313Z,95515.94
2018-08-30T02:04:15.862Z,95518.83
2018-08-30T02:06:44.393Z,95518.08
2018-08-30T02:09:13.862Z,95515.07
2018-08-30T02:14:08.747Z,95517.50
2018-08-30T02:16:37.811Z,95514.42
2018-08-30T02:19:08.867Z,95517.79
2018-08-30T02:21:37.925Z,95517.44
2018-08-30T02:24:07.956Z,95520.05
2018-08-30T02:26:37.021Z,95519.62
2018-08-30T02:29:08.002Z,95525.48
2018-08-30T02:31:37.061Z,95523.14
2018-08-30T02:34:06.116Z,95517.05
2018-08-30T02:36:36.107Z,95515.41
2018-08-30T02:39:05.213Z,95520.67
2018-08-30T02:41:34.269Z,95522.14
2018-08-30T02:44:03.341Z,95521.38
2018-08-30T02:46:32.377Z,95524.93
2018-08-30T02:49:01.518Z,95524.59
2018-08-30T02:51:30.498Z,95524.72
2018-08-30T02:56:35.292Z,95528.23
2018-08-30T02:59:04.363Z,95532.40
2018-08-30T03:01:33.409Z,95542.56
2018-08-30T03:04:02.466Z,95532.51
2018-08-30T03:06:33.495Z,95536.02
2018-08-30T03:09:02.559Z,95533.77
2018-08-30T03:11:31.618Z,95538.91
2018-08-30T03:14:00.785Z,95539.22
2018-08-30T03:19:05.581Z,95540.95
2018-08-30T03:21:35.575Z,95549.02
2018-08-30T03:24:04.615Z,95550.39
2018-08-30T03:26:33.673Z,95552.94
2018-08-30T03:29:03.683Z,95551.57
2018-08-30T03:31:32.749Z,95551.55
2018-08-30T03:34:05.274Z,95543.94
2018-08-30T03:36:34.346Z,95543.27
2018-08-30T03:39:03.713Z,95543.30
2018-08-30T03:41:32.764Z,95542.33
2018-08-30T03:44:01.825Z,95548.22
2018-08-30T03:46:30.882Z,95552.73
2018-08-30T03:49:00.888Z,95549.09
2018-08-30T03:51:29.949Z,95556.58
2018-08-30T03:53:59.032Z,95564.58
2018-08-30T03:56:29.113Z,95565.89
2018-08-30T03:58:58.158Z,95565.97
2018-08-30T04:01:27.257Z,95570.20
2018-08-30T04:03:57.689Z,95576.62
2018-08-30T04:06:26.745Z,95566.47
2018-08-30T04:08:56.749Z,95568.38
2018-08-30T04:11:26.777Z,95570.32
2018-08-30T04:13:55.840Z,95570.67
2018-08-30T04:16:24.953Z,95575.87
2018-08-30T04:18:54.011Z,95572.88
2018-08-30T04:21:23.066Z,95576.02
2018-08-30T04:23:53.099Z,95578.66
2018-08-30T04:26:22.164Z,95586.03
2018-08-30T04:28:51.227Z,95591.93
2018-08-30T04:33:56.068Z,95594.86
2018-08-30T04:39:01.918Z,95594.80
2018-08-30T04:41:32.507Z,95592.56
2018-08-30T04:44:01.575Z,95591.48
2018-08-30T04:49:06.539Z,95592.69
2018-08-30T04:54:12.450Z,95591.00
2018-08-30T04:56:41.557Z,95591.84
2018-08-30T05:01:46.376Z,95601.89
2018-08-30T05:06:51.263Z,95607.47
2018-08-30T05:09:22.321Z,95609.39
2018-08-30T05:11:51.488Z,95608.52
2018-08-30T05:14:20.549Z,95612.70
2018-08-30T05:16:49.673Z,95619.85
2018-08-30T05:19:18.727Z,95620.31
2018-08-30T05:24:26.525Z,95628.43
2018-08-30T05:29:31.422Z,95631.78
2018-08-30T05:32:00.598Z,95634.36
2018-08-30T05:34:29.642Z,95644.58
2018-08-30T05:36:58.701Z,95645.83
2018-08-30T05:39:31.061Z,95646.17
2018-08-30T05:44:36.473Z,95644.99
2018-08-30T05:49:40.711Z,95650.88
2018-08-30T05:52:11.710Z,95651.28
2018-08-30T06:02:48.445Z,95662.98
2018-08-30T06:05:26.634Z,95660.52
2018-08-30T06:13:18.821Z,95665.69
2018-08-30T06:15:55.669Z,95664.34
2018-08-30T06:23:37.234Z,95677.75
2018-08-30T06:28:42.082Z,95681.09
2018-08-30T06:31:14.337Z,95681.80
2018-08-30T06:33:45.411Z,95687.02
2018-08-30T06:36:14.491Z,95688.70
2018-08-30T06:38:44.563Z,95688.88
2018-08-30T06:43:50.130Z,95688.31
2018-08-30T06:46:19.364Z,95691.59
2018-08-30T06:48:52.160Z,95693.77
2018-08-30T06:56:32.754Z,95699.83
2018-08-30T06:59:01.903Z,95700.45
2018-08-30T07:01:31.135Z,95704.97
2018-08-30T07:04:00.182Z,95707.75
2018-08-30T07:06:36.644Z,95710.94
2018-08-30T07:09:11.442Z,95709.43
2018-08-30T07:16:52.995Z,95714.98
2018-08-30T07:19:25.374Z,95720.78
2018-08-30T07:21:55.398Z,95720.95
2018-08-30T07:24:33.226Z,95726.80
2018-08-30T07:27:02.295Z,95721.53
2018-08-30T07:29:32.245Z,95721.95
2018-08-30T07:34:45.225Z,95724.84
2018-08-30T07:37:14.201Z,95729.58
2018-08-30T07:39:43.254Z,95732.33
2018-08-30T07:44:48.101Z,95723.79
2018-08-30T07:47:17.226Z,95728.50
2018-08-30T07:49:46.232Z,95730.55
2018-08-30T07:52:15.289Z,95730.77
2018-08-30T07:54:44.529Z,95731.31
2018-08-30T07:57:13.649Z,95731.91
2018-08-30T07:59:44.609Z,95730.34
2018-08-30T08:04:49.391Z,95737.32
2018-08-30T08:07:20.505Z,95742.09
2018-08-30T08:09:53.382Z,95742.72
2018-08-30T08:12:22.441Z,95746.55
2018-08-30T08:14:51.512Z,95744.78
2018-08-30T08:17:22.538Z,95748.15
2018-08-30T08:19:52.509Z,95755.02
2018-08-30T08:22:21.595Z,95753.75
2018-08-30T08:24:50.714Z,95749.77
2018-08-30T08:27:20.682Z,95756.28
2018-08-30T08:29:49.754Z,95761.06
2018-08-30T08:32:20.297Z,95756.98
2018-08-30T08:37:25.542Z,95762.55
2018-08-30T08:39:54.609Z,95771.82
2018-08-30T08:42:24.581Z,95778.54
2018-08-30T08:44:53.901Z,95780.08
2018-08-30T08:47:24.931Z,95774.75
2018-08-30T08:49:55.991Z,95780.78
2018-08-30T08:52:29.074Z,95775.25
2018-08-30T08:54:58.138Z,95781.02
2018-08-30T08:57:27.381Z,95783.22
2018-08-30T08:59:57.389Z,95780.77
2018-08-30T09:02:27.407Z,95787.45
2018-08-30T09:07:33.245Z,95797.02
2018-08-30T09:10:02.239Z,95803.30
2018-08-30T09:12:31.282Z,95802.06
2018-08-30T09:15:01.294Z,95795.99
2018-08-30T09:17:30.356Z,95792.69
2018-08-30T09:19:59.399Z,95793.58
2018-08-30T09:22:28.449Z,95797.48
2018-08-30T09:24:57.497Z,95794.47
2018-08-30T09:27:26.571Z,95798.88
2018-08-30T09:29:55.637Z,95803.61
2018-08-30T09:32:24.689Z,95798.28
2018-08-30T09:34:53.732Z,95800.13
2018-08-30T09:37:22.793Z,95802.22
2018-08-30T09:39:55.265Z,95794.29
2018-08-30T09:42:24.315Z,95794.73
2018-08-30T09:44:53.503Z,95794.91
2018-08-30T09:47:22.538Z,95789.53
2018-08-30T09:49:51.675Z,95793.69
2018-08-30T09:54:58.419Z,95795.57
2018-08-30T09:57:27.774Z,95792.68
2018-08-30T09:59:56.766Z,95791.94
2018-08-30T10:02:25.809Z,95803.42
2018-08-30T10:04:56.860Z,95797.09
2018-08-30T10:07:25.869Z,95802.97
2018-08-30T10:09:54.904Z,95800.28
2018-08-30T10:12:24.068Z,95804.95
2018-08-30T10:14:53.125Z,95808.79
2018-08-30T10:17:23.122Z,95802.35
2018-08-30T10:19:54.218Z,95802.52
2018-08-30T10:22:23.254Z,95804.23
2018-08-30T10:24:52.340Z,95814.66
2018-08-30T10:27:21.373Z,95812.21
2018-08-30T10:29:52.422Z,95809.78
2018-08-30T10:32:24.863Z,95805.03
2018-08-30T10:34:53.904Z,95801.80
2018-08-30T10:40:03.233Z,95804.69
2018-08-30T10:42:32.450Z,95807.45
2018-08-30T10:45:01.508Z,95797.81
2018-08-30T10:47:31.558Z,95794.48
2018-08-30T10:50:00.784Z,95793.93
2018-08-30T10:52:29.798Z,95794.80
2018-08-30T10:54:59.787Z,95795.57
2018-08-30T10:57:28.853Z,95797.03
2018-08-30T10:59:57.883Z,95797.90
2018-08-30T11:02:26.937Z,95790.01
2018-08-30T11:04:56.176Z,95788.58
2018-08-30T11:07:25.220Z,95788.39
2018-08-30T11:09:54.293Z,95788.48
2018-08-30T11:12:23.445Z,95790.81
2018-08-30T11:14:52.496Z,95788.89
2018-08-30T11:17:21.555Z,95788.17
2018-08-30T11:19:50.594Z,95786.61
2018-08-30T11:30:06.958Z,95794.97
2018-08-30T11:32:43.499Z,95796.30
2018-08-30T11:35:17.204Z,95795.13
2018-08-30T11:37:47.646Z,95797.48
2018-08-30T11:40:17.541Z,95795.73
2018-08-30T11:42:46.608Z,95787.59
2018-08-30T11:45:15.666Z,95788.10
2018-08-30T11:47:44.713Z,95787.57
2018-08-30T11:50:13.757Z,95792.96
2018-08-30T11:52:42.849Z,95791.65
2018-08-30T11:55:11.853Z,95794.83
2018-08-30T11:57:40.922Z,95798.88
2018-08-30T12:00:09.988Z,95803.81
2018-08-30T12:02:39.042Z,95806.48
2018-08-30T12:05:08.105Z,95808.09
2018-08-30T12:07:37.145Z,95816.27
2018-08-30T12:10:08.198Z,95816.14
2018-08-30T12:12:37.545Z,95818.95
2018-08-30T12:15:06.589Z,95819.59
2018-08-30T12:17:35.654Z,95815.78
2018-08-30T12:20:05.397Z,95817.27
2018-08-30T12:22:34.446Z,95815.39
2018-08-30T12:25:03.488Z,95809.37
2018-08-30T12:27:32.754Z,95811.92
2018-08-30T12:30:01.841Z,95811.39
2018-08-30T12:32:30.952Z,95824.25
2018-08-30T12:35:00.952Z,95824.83
2018-08-30T12:37:35.762Z,95825.56
2018-08-30T12:40:04.910Z,95825.46
2018-08-30T12:42:34.958Z,95828.59
2018-08-30T12:45:03.990Z,95828.02
2018-08-30T12:47:33.011Z,95829.67
2018-08-30T12:50:02.070Z,95829.34
2018-08-30T12:52:31.159Z,95828.97
2018-08-30T12:55:00.201Z,95831.09
2018-08-30T12:57:29.326Z,95831.56
2018-08-30T13:02:35.060Z,95827.14
2018-08-30T13:05:04.186Z,95830.68
2018-08-30T13:07:33.245Z,95828.78
2018-08-30T13:10:02.330Z,95837.63
2018-08-30T13:12:32.104Z,95832.88
2018-08-30T13:15:01.258Z,95834.91
2018-08-30T13:17:30.914Z,95829.31
2018-08-30T13:22:36.092Z,95832.33
2018-08-30T13:25:04.935Z,95831.15
2018-08-30T13:27:33.879Z,95832.09
2018-08-30T13:30:03.309Z,95825.50
2018-08-30T13:32:32.271Z,95821.73
2018-08-30T13:35:01.523Z,95823.37
2018-08-30T13:37:30.486Z,95822.38
2018-08-30T13:39:59.410Z,95824.87
2018-08-30T13:42:28.384Z,95825.14
2018-08-30T13:44:57.572Z,95826.45
2018-08-30T13:47:28.300Z,95819.35
2018-08-30T13:49:57.560Z,95819.97
2018-08-30T13:52:26.771Z,95822.05
2018-08-30T13:54:59.088Z,95818.98
2018-08-30T13:57:28.851Z,95815.66
2018-08-30T13:59:57.968Z,95814.14
2018-08-30T14:05:02.300Z,95814.47
2018-08-30T14:07:34.721Z,95817.13
2018-08-30T14:10:04.740Z,95816.08
2018-08-30T14:12:33.991Z,95822.16
2018-08-30T14:15:03.121Z,95823.31
2018-08-30T14:20:08.559Z,95818.84
2018-08-30T14:22:38.664Z,95819.73
2018-08-30T14:25:08.585Z,95828.64
2018-08-30T14:27:37.668Z,95821.50
2018-08-30T14:30:07.752Z,95822.53
2018-08-30T14:35:12.754Z,95822.42
2018-08-30T14:40:18.079Z,95823.85
2018-08-30T14:42:46.879Z,95824.75
2018-08-30T14:45:17.045Z,95825.03
2018-08-30T14:47:46.347Z,95824.87
2018-08-30T14:52:51.081Z,95826.74
2018-08-30T15:00:31.682Z,95829.63
2018-08-30T15:03:00.721Z,95828.73
2018-08-30T15:05:29.936Z,95828.22
2018-08-30T15:07:58.812Z,95831.86
2018-08-30T15:10:27.836Z,95832.63
2018-08-30T15:12:56.891Z,95829.22
2018-08-30T15:15:26.988Z,95833.50
2018-08-30T15:17:55.977Z,95832.53
2018-08-30T15:20:25.117Z,95833.61
2018-08-30T15:22:54.081Z,95840.49
2018-08-30T15:25:23.129Z,95839.49
2018-08-30T15:27:54.094Z,95840.70
2018-08-30T15:30:24.223Z,95843.61
2018-08-30T15:32:55.725Z,95841.22
2018-08-30T15:38:00.512Z,95845.73
2018-08-30T15:40:30.494Z,95847.56
2018-08-30T15:43:00.583Z,95844.43
2018-08-30T15:45:29.628Z,95844.91
2018-08-30T15:47:58.682Z,95850.89
2018-08-30T15:50:27.746Z,95846.16
2018-08-30T15:52:56.794Z,95847.81
2018-08-30T15:58:01.694Z,95842.34
2018-08-30T16:00:30.729Z,95845.39
2018-08-30T16:03:00.790Z,95842.13
2018-08-30T16:05:30.004Z,95845.63
2018-08-30T16:07:59.090Z,95846.66
2018-08-30T16:10:28.133Z,95843.42
2018-08-30T16:12:57.322Z,95846.20
2018-08-30T16:15:29.969Z,95842.17
2018-08-30T16:18:02.680Z,95841.44
2018-08-30T16:23:07.590Z,95838.16
2018-08-30T16:25:40.698Z,95839.11
2018-08-30T16:28:09.752Z,95843.45
2018-08-30T16:30:39.057Z,95838.85
2018-08-30T16:33:12.191Z,95835.39
2018-08-30T16:35:42.434Z,95836.54
2018-08-30T16:40:48.461Z,95836.70
2018-08-30T16:43:17.510Z,95831.23
2018-08-30T16:48:23.166Z,95829.37
2018-08-30T16:50:52.229Z,95832.13
2018-08-30T16:53:21.395Z,95829.09
2018-08-30T16:55:50.326Z,95828.95
2018-08-30T16:58:20.580Z,95827.27
2018-08-30T17:00:49.618Z,95827.66
2018-08-30T17:03:19.594Z,95827.27
2018-08-30T17:05:48.725Z,95823.67
2018-08-30T17:10:53.579Z,95823.14
2018-08-30T17:13:22.625Z,95823.28
2018-08-30T17:15:51.707Z,95824.52
2018-08-30T17:20:56.584Z,95826.45
2018-08-30T17:23:25.632Z,95826.96
2018-08-30T17:25:54.816Z,95826.36
2018-08-30T17:28:23.891Z,95827.89
2018-08-30T17:33:29.481Z,95829.89
2018-08-30T17:35:58.575Z,95828.64
2018-08-30T17:38:27.709Z,95829.92
2018-08-30T17:43:32.724Z,95831.79
2018-08-30T17:46:01.775Z,95832.13
2018-08-30T17:48:30.857Z,95836.09
2018-08-30T17:50:59.947Z,95831.97
2018-08-30T17:53:29.090Z,95835.62
2018-08-30T17:55:58.088Z,95836.59
2018-08-30T17:58:27.133Z,95836.38
2018-08-30T18:00:57.204Z,95840.28
2018-08-30T18:03:26.261Z,95842.53
2018-08-30T18:05:55.341Z,95845.91
2018-08-30T18:08:24.452Z,95847.87
2018-08-30T18:10:53.514Z,95855.22
2018-08-30T18:13:22.597Z,95854.61
2018-08-30T18:15:51.666Z,95856.67
2018-08-30T18:20:56.538Z,95848.45
2018-08-30T18:23:25.604Z,95855.89
2018-08-30T18:25:54.673Z,95860.31
2018-08-30T18:28:23.922Z,95867.90
2018-08-30T18:33:28.798Z,95874.36
2018-08-30T18:35:57.854Z,95870.69
2018-08-30T18:38:26.923Z,95872.22
2018-08-30T18:40:55.989Z,95876.00
2018-08-30T18:43:25.051Z,95874.19
2018-08-30T18:45:54.109Z,95876.25
2018-08-30T18:48:23.190Z,95878.98
2018-08-30T18:50:52.255Z,95883.33
2018-08-30T18:53:22.304Z,95881.33
2018-08-30T18:55:51.378Z,95878.64
2018-08-30T18:58:20.469Z,95881.51
2018-08-30T19:00:49.482Z,95880.02
2018-08-30T19:03:18.563Z,95884.78
2018-08-30T19:05:48.602Z,95881.83
2018-08-30T19:10:53.465Z,95893.53
2018-08-30T19:13:22.605Z,95897.70
2018-08-30T19:15:52.565Z,95896.98
2018-08-30T19:23:55.104Z,95897.20
2018-08-30T19:26:24.154Z,95901.59
2018-08-30T19:28:53.240Z,95900.34
2018-08-30T19:36:39.902Z,95891.58
2018-08-30T19:39:08.945Z,95891.61
2018-08-30T19:41:38.030Z,95889.33
2018-08-30T19:44:08.036Z,95892.96
2018-08-30T19:46:37.100Z,95891.39
2018-08-30T19:49:06.226Z,95897.44
2018-08-30T19:54:10.990Z,95888.91
2018-08-30T19:56:41.003Z,95894.54
2018-08-30T20:01:45.758Z,95897.50
2018-08-30T20:04:14.838Z,95899.72
2018-08-30T20:06:47.431Z,95901.47
2018-08-30T20:09:17.462Z,95899.22
2018-08-30T20:11:46.508Z,95901.30
2018-08-30T20:14:15.553Z,95899.53
2018-08-30T20:16:44.637Z,95900.20
2018-08-30T20:19:14.658Z,95901.75
2018-08-30T20:21:43.712Z,95901.36
2018-08-30T20:24:12.830Z,95896.03
2018-08-30T20:26:41.901Z,95896.34
2018-08-30T20:29:10.962Z,95893.23
2018-08-30T20:31:40.032Z,95887.36
2018-08-30T20:36:44.832Z,95903.98
2018-08-30T20:39:13.908Z,95907.97
2018-08-30T20:41:44.105Z,95907.55
2018-08-30T20:49:24.743Z,95906.42
2018-08-30T20:51:53.798Z,95898.06
2018-08-30T20:54:22.876Z,95893.19
2018-08-30T20:56:51.929Z,95892.03
2018-08-30T20:59:20.994Z,95887.28
2018-08-30T21:01:51.067Z,95883.19
2018-08-30T21:04:23.483Z,95880.77
2018-08-30T21:12:04.247Z,95875.88
2018-08-30T21:14:33.328Z,95874.03
2018-08-30T21:17:02.384Z,95871.06
2018-08-30T21:19:31.528Z,95874.05
2018-08-30T21:22:01.482Z,95872.48
2018-08-30T21:24:30.550Z,95867.93
2018-08-30T21:26:59.620Z,95870.81
2018-08-30T21:29:28.673Z,95870.80
2018-08-30T21:31:57.825Z,95865.31
2018-08-30T21:39:38.547Z,95871.11
2018-08-30T21:42:07.606Z,95870.13
2018-08-30T21:44:36.680Z,95866.14
2018-08-30T21:47:06.436Z,95866.24
2018-08-30T21:49:39.245Z,95869.70
2018-08-30T21:52:08.344Z,95875.22
2018-08-30T21:54:39.381Z,95877.86
2018-08-30T21:57:08.453Z,95880.20
2018-08-30T21:59:37.524Z,95881.32
2018-08-30T22:02:06.626Z,95880.13
2018-08-30T22:04:35.796Z,95884.41
2018-08-30T22:07:04.914Z,95880.67
2018-08-30T22:12:09.784Z,95874.06
2018-08-30T22:14:38.856Z,95864.78
2018-08-30T22:17:07.928Z,95855.71
2018-08-30T22:22:13.901Z,95839.61
2018-08-30T22:27:20.613Z,95841.95
2018-08-30T22:29:49.722Z,95846.16
2018-08-30T22:32:18.801Z,95851.05
2018-08-30T22:37:23.589Z,95855.42
2018-08-30T22:39:52.705Z,95858.64
2018-08-30T22:42:23.703Z,95857.09
2018-08-30T22:44:53.734Z,95856.77
2018-08-30T22:47:22.833Z,95850.97
2018-08-30T22:49:51.900Z,95843.76
2018-08-30T22:52:20.964Z,95848.30
2018-08-30T22:54:50.056Z,95843.66
2018-08-30T22:57:19.122Z,95828.80
2018-08-30T22:59:49.141Z,95822.89
2018-08-30T23:02:18.210Z,95811.87
2018-08-30T23:04:47.271Z,95812.84
2018-08-30T23:09:52.105Z,95804.68
2018-08-30T23:12:21.186Z,95809.98
2018-08-30T23:14:50.439Z,95808.47
2018-08-30T23:17:19.501Z,95812.95
2018-08-30T23:22:24.363Z,95814.21
2018-08-30T23:27:29.222Z,95805.56
2018-08-30T23:29:58.426Z,95809.48
2018-08-30T23:35:03.351Z,95809.28
2018-08-30T23:37:32.465Z,95798.21
2018-08-30T23:40:01.529Z,95798.42
2018-08-30T23:42:30.597Z,95798.56
2018-08-30T23:44:59.661Z,95796.25
2018-08-30T23:47:28.726Z,95790.95
2018-08-30T23:49:57.793Z,95789.20
2018-08-30T23:52:26.856Z,95792.94
2018-08-30T23:54:55.953Z,95793.02
2018-08-30T23:57:25.030Z,95789.84
